Atlanta, Georgia
Traffic Map
Current Weather Conditions
Atlanta, Georgia
Overcast Light Rain
Overcast

Feels Like: 4°
Wind Chill: Ceiling: 500
Heat Index: Visibility: 2mi
Dew Point: Wind: 13mph
Humidity: 93% Direction: 80° (E)
Pressure: 29.91in Gusts: 0mph
Raw Report DataKATL 222231Z 08011KT 2SM -RA OVC005 07/06 A2991 RMK AO2 SFC VIS 9 RAB2156 CIG 003V006 P0002
Traffic Incident Summary
Active as of:
Severity:
Category:
InformationThere was an issue retrieving the traffic information for this location. Please try a different location or try again shortly.
Advertisements
Track Severe Weather on mobile